Strona główna
METAR-TAF:

METAR-TAF

Lotnisko :

Port lotniczy Szczecin-Goleniów

Szczecin, Polska

Szerokość geograficzna: 53-35N, Długość geograficzna: 014-54E, wysokość: 1 m

Aktualna obserwacja pogody

Raport powstał 25 minut temu, godzina 01:30 UTC
Wiatr 1 kt z kierunków zmiennych
Temperatura 15°C
Wilgotność 82%
Ciśnienie 1020 hPa
Widzialność 10 km lub więcej
Brak chmur poniżej 1500 m i brak chmur cumulonimbus

METAR: EPSC 190130Z VRB01KT CAVOK 15/12 Q1020

czas: 03:55 (01:55 UTC)

Prognoza

Raport powstał 2 godziny i 25 minut temu, godzina 23:30 UTC
Prognoza ważna od 19 godzina 00 UTC do 19 godzina 24 UTC
Wiatr 5 kt z kierunków zmiennych
Widzialność 10 km lub więcej
Brak chmur poniżej 1500 m i brak chmur cumulonimbus
Stopniowe zmiany
od 19 godzina 07 UTC do 19 godzina 09 UTC
Wiatr 10 kt od zachód
Stopniowe zmiany
od 19 godzina 17 UTC do 19 godzina 19 UTC
Wiatr 3 kt z kierunków zmiennych

TAF: EPSC 182330Z 1900/1924 VRB05KT CAVOK BECMG 1907/1909 26010KT BECMG 1917/1919 VRB03KT

Obserwacja i prognoza pogody dla ponad 4000 lotnisk (raport METAR i TAF).

Dostępne stacje oznaczono żółtymi i czerwonymi punktami na mapie.

Najedź kursorem aby zobaczyć nazwę stacji.

Kliknij aby zobaczyć obserwacje i prognozy pogody.

Aby zmienić mapę: kliknij na zielony przycisk z czarnym krzyżykiem, aby powiększyć; na zielony przycisk z myślnikiem, aby pomniejszyć; na zielone strzałki, aby przejść do map sąsiednich.


METAR-TAF: